Terminal Aerodrome Forecast
Issued by NWS Louisville, KY

Home | Current Version | Previous Version | Text Only | Print | Product List | Glossary On
Versions: 1 2 3 4 5 6 7 8 9 10 11 12 13 14 15 16
408
FTUS43 KLMK 220520
TAFLEX
TAF
KLEX 220520Z 2206/2306 20005KT 6SM HZ FEW050
      TEMPO 2209/2213 4SM HZ
     FM221500 23010KT 6SM HZ FEW040=

USA.gov is the U.S. government's official web portal to all federal, state and local government web resources and services.